Time;durP1;ratioP1;P1;durP2;ratioP2;P2;SDS_P1;SDS_P2;PMS_P1;PMS_P2;Temp;Humidity;BMP_temperature;BMP_pressure;BME280_temperature;BME280_humidity;BME280_pressure;Samples;Min_cycle;Max_cycle;Signal;HPM_P1;HPM_P2
2021/05/22 00:00:53;;;;;;;0.10;0.10;;;16.20;97.60;;;;;;6151324;23;20247;-82
2021/05/22 00:03:18;;;;;;;0.10;0.10;;;16.10;98.00;;;;;;6149086;23;20002;-80
2021/05/22 00:05:44;;;;;;;0.10;0.10;;;16.10;98.30;;;;;;6151176;23;20084;-82
2021/05/22 00:08:10;;;;;;;0.10;0.10;;;16.10;98.80;;;;;;6151029;23;20002;-81
2021/05/22 00:10:35;;;;;;;0.10;0.10;;;16.20;98.80;;;;;;6149185;23;20024;-79
2021/05/22 00:13:02;;;;;;;0.10;0.10;;;16.20;98.90;;;;;;6149534;23;20006;-79
2021/05/22 00:15:28;;;;;;;0.10;0.10;;;16.10;99.10;;;;;;6149611;23;20005;-80
2021/05/22 00:17:53;;;;;;;0.10;0.10;;;16.10;99.20;;;;;;6150857;23;20241;-80
2021/05/22 00:20:19;;;;;;;0.10;0.10;;;16.10;99.50;;;;;;6149477;23;20009;-79
2021/05/22 00:22:45;;;;;;;0.45;0.45;;;16.10;99.50;;;;;;6150705;23;20056;-80
2021/05/22 00:25:13;;;;;;;0.10;0.10;;;16.20;99.30;;;;;;6149535;23;20508;-80
2021/05/22 00:27:38;;;;;;;0.10;0.10;;;16.20;99.20;;;;;;6151007;23;20001;-80
2021/05/22 00:30:06;;;;;;;0.10;0.10;;;16.20;99.10;;;;;;6150688;23;20016;-80
2021/05/22 00:32:31;;;;;;;0.10;0.10;;;16.40;99.30;;;;;;6149411;23;20021;-79
2021/05/22 00:34:58;;;;;;;0.10;0.10;;;16.40;99.90;;;;;;6150903;23;20100;-80
2021/05/22 00:37:24;;;;;;;0.10;0.10;;;16.40;99.90;;;;;;6149306;23;20013;-80
2021/05/22 00:39:50;;;;;;;0.10;0.10;;;16.30;99.90;;;;;;6151046;23;20445;-80
2021/05/22 00:42:15;;;;;;;0.10;0.10;;;16.20;99.90;;;;;;6150970;23;20008;-79
2021/05/22 00:45:11;;;;;;;0.00;0.00;;;16.10;99.90;;;;;;6150957;23;20010;-80
2021/05/22 00:47:46;;;;;;;0.10;0.10;;;16.00;99.90;;;;;;6150924;23;20688;-79
2021/05/22 00:50:15;;;;;;;0.00;0.00;;;15.90;99.90;;;;;;6150709;23;20720;-80
2021/05/22 00:52:41;;;;;;;0.10;0.10;;;16.00;99.90;;;;;;6150723;23;20080;-79
2021/05/22 00:55:08;;;;;;;0.00;0.00;;;16.00;99.90;;;;;;6150437;23;20040;-80
2021/05/22 00:57:34;;;;;;;0.10;0.10;;;16.00;99.90;;;;;;6150647;23;20002;-79
2021/05/22 00:59:59;;;;;;;0.10;0.10;;;15.90;99.90;;;;;;6148792;23;20107;-80
2021/05/22 01:02:27;;;;;;;0.10;0.10;;;15.90;99.90;;;;;;6149145;23;20073;-80
2021/05/22 01:04:53;;;;;;;;;;;15.90;99.90;;;;;;6151191;23;20012;-80
2021/05/22 01:07:19;;;;;;;0.05;0.05;;;15.80;99.90;;;;;;6151005;23;19901;-79
2021/05/22 01:09:48;;;;;;;0.10;0.10;;;15.90;99.90;;;;;;6148647;23;20033;-79
2021/05/22 01:12:14;;;;;;;0.00;0.00;;;15.90;99.90;;;;;;6149624;23;20036;-79
2021/05/22 01:15:23;;;;;;;0.10;0.10;;;16.00;99.90;;;;;;6150598;23;20021;-79
2021/05/22 01:17:49;;;;;;;0.10;0.10;;;16.00;99.90;;;;;;6064068;23;20021;-79
2021/05/22 01:20:38;;;;;;;0.10;0.10;;;16.00;99.90;;;;;;6135474;23;20422;-79
2021/05/22 01:23:10;;;;;;;0.10;0.10;;;16.10;99.90;;;;;;6149856;23;20076;-79
2021/05/22 01:25:41;;;;;;;0.10;0.10;;;16.10;99.90;;;;;;6150242;23;20052;-79
2021/05/22 01:28:10;;;;;;;0.10;0.10;;;16.20;99.90;;;;;;6149044;23;20037;-79
2021/05/22 01:30:38;;;;;;;0.10;0.10;;;16.20;99.90;;;;;;6150453;23;20440;-78
2021/05/22 01:33:04;;;;;;;;;;;16.30;99.90;;;;;;6150808;23;20013;-79
2021/05/22 01:35:30;;;;;;;0.10;0.10;;;16.30;99.90;;;;;;6150387;23;20567;-79
2021/05/22 01:37:57;;;;;;;0.10;0.10;;;16.30;99.90;;;;;;6150423;23;20002;-79
2021/05/22 01:40:22;;;;;;;0.10;0.10;;;16.40;99.90;;;;;;6150373;23;20006;-80
2021/05/22 01:42:48;;;;;;;0.00;0.00;;;16.40;99.90;;;;;;6150391;23;20001;-79
2021/05/22 01:45:34;;;;;;;0.10;0.10;;;16.40;99.90;;;;;;6148844;23;20013;-79
2021/05/22 01:48:03;;;;;;;0.10;0.10;;;16.40;99.90;;;;;;6150095;23;20006;-80
2021/05/22 01:50:32;;;;;;;0.03;0.03;;;16.40;99.90;;;;;;6148139;23;20013;-79
2021/05/22 01:53:01;;;;;;;0.00;0.00;;;16.30;99.90;;;;;;6148766;23;20006;-79
2021/05/22 01:55:28;;;;;;;0.10;0.10;;;16.20;99.90;;;;;;6150437;23;20011;-80
2021/05/22 01:57:54;;;;;;;0.10;0.10;;;16.30;99.80;;;;;;6148448;23;20006;-79
2021/05/22 02:00:20;;;;;;;0.10;0.10;;;16.30;99.80;;;;;;6150166;23;20416;-79
2021/05/22 02:02:54;;;;;;;0.10;0.10;;;16.30;98.80;;;;;;6150343;23;20005;-82
2021/05/22 02:05:20;;;;;;;0.00;0.00;;;16.30;99.10;;;;;;6150433;23;20476;-82
2021/05/22 02:07:48;;;;;;;0.10;0.10;;;16.30;98.60;;;;;;6150284;23;20396;-82
2021/05/22 02:10:14;;;;;;;0.52;0.52;;;16.30;99.00;;;;;;6150274;23;20087;-80
2021/05/22 02:12:41;;;;;;;0.10;0.10;;;16.30;98.30;;;;;;6150297;23;20013;-80
2021/05/22 02:15:10;;;;;;;0.10;0.10;;;16.30;99.00;;;;;;6148330;23;20516;-80
2021/05/22 02:17:38;;;;;;;0.10;0.10;;;16.30;99.90;;;;;;6150277;23;20337;-80
2021/05/22 02:20:06;;;;;;;0.10;0.10;;;16.20;99.90;;;;;;6150229;23;20002;-79
2021/05/22 02:22:33;;;;;;;0.10;0.10;;;16.20;99.90;;;;;;6148256;23;20025;-80
2021/05/22 02:24:59;;;;;;;0.00;0.00;;;16.10;99.90;;;;;;6150274;23;20009;-80
2021/05/22 02:27:25;;;;;;;0.10;0.10;;;16.20;99.60;;;;;;6149966;23;20425;-80
2021/05/22 02:29:51;;;;;;;0.20;0.20;;;16.20;97.60;;;;;;6150241;23;20009;-79
2021/05/22 02:32:22;;;;;;;0.10;0.10;;;16.10;97.60;;;;;;6148427;23;20112;-79
2021/05/22 02:34:53;;;;;;;0.10;0.10;;;16.10;97.10;;;;;;6148460;23;20009;-82
2021/05/22 02:37:24;;;;;;;0.10;0.10;;;16.10;96.40;;;;;;6147719;23;20024;-82
2021/05/22 02:39:51;;;;;;;0.10;0.10;;;16.10;97.00;;;;;;6149820;23;20452;-82
2021/05/22 02:42:18;;;;;;;0.10;0.10;;;16.10;97.10;;;;;;6149828;23;20002;-81
2021/05/22 02:44:50;;;;;;;0.05;0.05;;;16.10;97.20;;;;;;6150096;23;20006;-82
2021/05/22 02:47:20;;;;;;;0.10;0.10;;;16.10;96.60;;;;;;6150096;23;19993;-82
2021/05/22 02:49:48;;;;;;;0.10;0.10;;;16.10;96.00;;;;;;6149856;23;20084;-81
2021/05/22 02:52:17;;;;;;;0.10;0.10;;;16.10;96.50;;;;;;6149590;23;20503;-78
2021/05/22 02:54:45;;;;;;;0.10;0.10;;;16.10;95.90;;;;;;6147943;23;20142;-79
2021/05/22 02:57:12;;;;;;;0.10;0.10;;;16.10;95.80;;;;;;6150067;23;20012;-78
2021/05/22 02:59:39;;;;;;;0.10;0.10;;;16.10;94.90;;;;;;6148123;23;20016;-79
2021/05/22 03:02:07;;;;;;;1.42;0.85;;;16.10;94.00;;;;;;6150267;23;20723;-80
2021/05/22 03:04:34;;;;;;;0.10;0.10;;;16.10;94.30;;;;;;6149758;23;20028;-80
2021/05/22 03:07:01;;;;;;;0.10;0.10;;;16.00;95.20;;;;;;6149564;23;19994;-80
2021/05/22 03:09:27;;;;;;;0.10;0.10;;;15.90;95.90;;;;;;6147735;23;20060;-79
2021/05/22 03:11:53;;;;;;;0.10;0.10;;;15.90;95.90;;;;;;6149586;23;20013;-79
2021/05/22 03:14:18;;;;;;;0.10;0.10;;;15.80;96.20;;;;;;6149662;23;20499;-78
2021/05/22 03:16:44;;;;;;;0.10;0.10;;;15.80;96.10;;;;;;6150060;23;20049;-80
2021/05/22 03:19:10;;;;;;;0.10;0.10;;;15.80;95.30;;;;;;6149247;23;20059;-79
2021/05/22 03:21:36;;;;;;;0.10;0.10;;;15.90;94.40;;;;;;6149667;23;20482;-80
2021/05/22 03:24:02;;;;;;;0.10;0.10;;;15.90;94.30;;;;;;6149367;23;20009;-78
2021/05/22 03:26:28;;;;;;;0.10;0.10;;;15.80;94.60;;;;;;6149515;23;20132;-80
2021/05/22 03:28:54;;;;;;;0.10;0.10;;;15.80;94.50;;;;;;6149600;23;20009;-80
2021/05/22 03:31:20;;;;;;;0.10;0.10;;;15.80;94.90;;;;;;6149815;23;20013;-80
2021/05/22 03:33:46;;;;;;;0.10;0.10;;;15.70;95.20;;;;;;6149668;23;20373;-80
2021/05/22 03:36:13;;;;;;;0.10;0.10;;;15.70;95.10;;;;;;6148348;23;20052;-79
2021/05/22 03:38:38;;;;;;;0.10;0.10;;;15.60;95.50;;;;;;6149838;23;20067;-81
2021/05/22 03:41:04;;;;;;;0.00;0.00;;;15.70;95.40;;;;;;6149657;23;20022;-79
2021/05/22 03:43:30;;;;;;;0.10;0.10;;;15.70;95.20;;;;;;6149739;23;20481;-80
2021/05/22 03:45:56;;;;;;;1.98;0.65;;;15.70;94.30;;;;;;6147950;23;20036;-80
2021/05/22 03:48:22;;;;;;;0.10;0.10;;;15.70;94.50;;;;;;6149710;23;20017;-80
2021/05/22 03:50:47;;;;;;;0.10;0.10;;;15.70;94.10;;;;;;6151214;23;20053;-78
2021/05/22 03:53:13;;;;;;;0.10;0.10;;;15.80;94.20;;;;;;6151209;23;20005;-78
2021/05/22 03:55:39;;;;;;;0.10;0.10;;;15.80;94.10;;;;;;6151094;23;20006;-78
2021/05/22 03:58:06;;;;;;;0.10;0.10;;;15.80;93.60;;;;;;6151382;23;20080;-80
2021/05/22 04:00:32;;;;;;;0.10;0.10;;;15.90;95.10;;;;;;6151400;23;19998;-78
2021/05/22 04:02:58;;;;;;;0.10;0.10;;;15.70;94.60;;;;;;6150936;23;20016;-78
2021/05/22 04:05:24;;;;;;;0.10;0.10;;;15.70;94.50;;;;;;6152055;23;19997;-81
2021/05/22 04:07:49;;;;;;;0.10;0.10;;;15.60;94.00;;;;;;6151393;23;20052;-81
2021/05/22 04:10:15;;;;;;;0.10;0.10;;;15.60;94.20;;;;;;6151104;23;20005;-81
2021/05/22 04:12:41;;;;;;;0.10;0.10;;;15.60;93.80;;;;;;6151126;23;20059;-80
2021/05/22 04:15:07;;;;;;;0.10;0.10;;;15.70;94.30;;;;;;6150097;23;20001;-84
2021/05/22 04:17:33;;;;;;;0.20;0.20;;;15.70;94.60;;;;;;6151785;23;20016;-81
2021/05/22 04:19:58;;;;;;;0.10;0.10;;;15.70;95.00;;;;;;6151348;23;20005;-79
2021/05/22 04:22:24;;;;;;;0.10;0.10;;;15.80;94.90;;;;;;6149844;23;20112;-79
2021/05/22 04:24:50;;;;;;;0.10;0.10;;;15.70;94.20;;;;;;6149237;23;20005;-80
2021/05/22 04:27:15;;;;;;;0.10;0.10;;;15.80;94.80;;;;;;6152626;23;20008;-79
2021/05/22 04:29:41;;;;;;;0.10;0.10;;;15.80;94.20;;;;;;6151614;23;20081;-81
2021/05/22 04:32:07;;;;;;;0.10;0.10;;;15.70;94.60;;;;;;6151779;23;20053;-85
2021/05/22 04:34:33;;;;;;;0.10;0.10;;;15.80;93.80;;;;;;6153105;23;20008;-82
2021/05/22 04:36:58;;;;;;;0.10;0.10;;;15.90;93.00;;;;;;6151255;23;20001;-79
2021/05/22 04:39:24;;;;;;;0.10;0.10;;;15.90;92.70;;;;;;6150521;23;20008;-79
2021/05/22 04:41:50;;;;;;;0.10;0.10;;;16.00;91.50;;;;;;6150589;23;20009;-81
2021/05/22 04:44:15;;;;;;;0.10;0.10;;;16.10;91.40;;;;;;6150153;23;20052;-81
2021/05/22 04:46:41;;;;;;;0.10;0.10;;;16.20;91.40;;;;;;6150297;23;20009;-81
2021/05/22 04:49:07;;;;;;;0.10;0.10;;;16.20;91.20;;;;;;6151092;23;20081;-79
2021/05/22 04:51:33;;;;;;;0.10;0.10;;;16.10;90.80;;;;;;6150308;23;20013;-79
2021/05/22 04:54:07;;;;;;;0.10;0.10;;;16.10;90.80;;;;;;6149581;23;20002;-78
2021/05/22 04:56:33;;;;;;;0.10;0.10;;;16.10;91.10;;;;;;6149501;23;20031;-79
2021/05/22 04:58:59;;;;;;;0.10;0.10;;;16.00;91.80;;;;;;6149226;23;20084;-79
2021/05/22 05:01:25;;;;;;;0.10;0.10;;;16.00;91.70;;;;;;6149017;23;20437;-79
2021/05/22 05:03:51;;;;;;;0.10;0.10;;;16.20;91.10;;;;;;6150365;23;20006;-78
2021/05/22 05:06:16;;;;;;;0.10;0.10;;;16.20;90.50;;;;;;6151140;23;20001;-78
2021/05/22 05:08:43;;;;;;;0.57;0.35;;;16.30;88.80;;;;;;6149061;23;20033;-79
2021/05/22 05:11:09;;;;;;;0.10;0.10;;;16.30;88.60;;;;;;6149016;23;20584;-78
2021/05/22 05:13:35;;;;;;;0.10;0.10;;;16.30;86.50;;;;;;6149627;23;20111;-78
2021/05/22 05:16:01;;;;;;;0.10;0.10;;;16.30;86.70;;;;;;6151487;23;20013;-80
2021/05/22 05:18:27;;;;;;;0.10;0.10;;;16.20;87.30;;;;;;6151385;23;20008;-79
2021/05/22 05:20:53;;;;;;;0.10;0.10;;;16.20;87.80;;;;;;6149719;23;19993;-80
2021/05/22 05:23:18;;;;;;;0.10;0.10;;;16.20;87.10;;;;;;6151316;23;20048;-80
2021/05/22 05:25:44;;;;;;;0.52;0.52;;;16.20;87.00;;;;;;6151555;23;20471;-82
2021/05/22 05:28:10;;;;;;;0.10;0.10;;;16.20;85.60;;;;;;6150071;23;20008;-81
2021/05/22 05:30:36;;;;;;;0.10;0.10;;;16.20;85.00;;;;;;6149574;23;20101;-79
2021/05/22 05:33:01;;;;;;;0.10;0.10;;;16.20;85.50;;;;;;6149848;23;20085;-80
2021/05/22 05:35:27;;;;;;;0.15;0.15;;;16.20;83.60;;;;;;6149877;23;20456;-77
2021/05/22 05:37:53;;;;;;;0.10;0.10;;;16.20;84.60;;;;;;6149567;23;20385;-78
2021/05/22 05:40:19;;;;;;;0.10;0.10;;;16.20;84.30;;;;;;6149633;23;20013;-79
2021/05/22 05:42:47;;;;;;;0.10;0.10;;;16.20;83.80;;;;;;6149789;23;20005;-80
2021/05/22 05:45:13;;;;;;;0.10;0.10;;;16.30;83.70;;;;;;6150133;23;20006;-79
2021/05/22 05:47:39;;;;;;;0.63;0.35;;;16.30;85.10;;;;;;6149403;23;20005;-80
2021/05/22 05:50:05;;;;;;;0.52;0.20;;;16.40;83.30;;;;;;6151398;23;20404;-81
2021/05/22 05:52:31;;;;;;;0.10;0.10;;;16.40;82.10;;;;;;6151045;23;20010;-80
2021/05/22 05:54:57;;;;;;;0.10;0.10;;;16.50;84.00;;;;;;6150689;23;20083;-82
2021/05/22 05:57:23;;;;;;;0.10;0.10;;;16.60;84.80;;;;;;6148449;23;20349;-81
2021/05/22 05:59:49;;;;;;;0.10;0.10;;;16.60;83.40;;;;;;6148497;23;20001;-79
2021/05/22 06:02:14;;;;;;;0.10;0.10;;;16.70;84.40;;;;;;6150435;23;20002;-80
2021/05/22 06:04:40;;;;;;;0.10;0.10;;;16.70;85.30;;;;;;6150377;23;20013;-81
2021/05/22 06:07:06;;;;;;;0.10;0.10;;;16.60;85.60;;;;;;6150304;23;20641;-80
2021/05/22 06:09:31;;;;;;;0.10;0.10;;;16.70;85.90;;;;;;6149205;23;20082;-79
2021/05/22 06:11:57;;;;;;;0.10;0.10;;;16.60;86.80;;;;;;6148343;23;20014;-82
2021/05/22 06:14:32;;;;;;;0.10;0.10;;;16.70;86.20;;;;;;6150198;23;20320;-81
2021/05/22 06:16:58;;;;;;;0.10;0.10;;;16.70;86.10;;;;;;6150415;23;20059;-80
2021/05/22 06:19:24;;;;;;;0.10;0.10;;;16.80;88.10;;;;;;6149848;23;20384;-81
2021/05/22 06:21:50;;;;;;;0.10;0.10;;;16.90;87.60;;;;;;6149747;23;20024;-81
2021/05/22 06:24:15;;;;;;;0.10;0.10;;;17.00;87.40;;;;;;6149703;23;20334;-81
2021/05/22 06:26:41;;;;;;;0.10;0.10;;;17.10;88.50;;;;;;6150223;23;20109;-80
2021/05/22 06:29:07;;;;;;;0.10;0.10;;;17.20;85.90;;;;;;6150786;23;20337;-85
2021/05/22 06:31:32;;;;;;;0.10;0.10;;;17.30;86.50;;;;;;6152422;23;20096;-86
2021/05/22 06:33:58;;;;;;;0.10;0.10;;;17.40;87.40;;;;;;6152256;23;20016;-85
2021/05/22 06:36:27;;;;;;;0.10;0.10;;;17.40;86.90;;;;;;6151702;23;20421;-85
2021/05/22 06:38:52;;;;;;;0.10;0.10;;;17.50;87.90;;;;;;6151726;23;20033;-82
2021/05/22 06:41:18;;;;;;;0.00;0.00;;;17.50;88.70;;;;;;6148339;23;20020;-81
2021/05/22 06:43:44;;;;;;;0.10;0.10;;;17.50;88.50;;;;;;6147974;23;19997;-82
2021/05/22 06:48:35;;;;;;;0.10;0.10;;;17.60;88.40;;;;;;6149843;23;20014;-80
2021/05/22 06:51:01;;;;;;;0.10;0.10;;;17.60;88.30;;;;;;6149723;23;20014;-80
2021/05/22 06:53:27;;;;;;;0.10;0.10;;;17.60;88.50;;;;;;6149649;23;20005;-80
2021/05/22 06:55:53;;;;;;;0.10;0.10;;;17.90;86.50;;;;;;6149875;23;20001;-79
2021/05/22 06:58:19;;;;;;;0.10;0.10;;;17.90;84.40;;;;;;6150039;23;20001;-80
2021/05/22 07:00:45;;;;;;;0.10;0.10;;;18.20;85.50;;;;;;6148749;23;20010;-82
2021/05/22 07:03:11;;;;;;;0.10;0.10;;;18.30;83.40;;;;;;6149758;23;20005;-80
2021/05/22 07:05:36;;;;;;;0.10;0.10;;;18.30;83.50;;;;;;6149462;23;20006;-80
2021/05/22 07:08:02;;;;;;;0.10;0.10;;;18.30;83.40;;;;;;6149714;23;20009;-82
2021/05/22 07:10:29;;;;;;;0.10;0.10;;;18.20;84.50;;;;;;6149620;23;20001;-81
2021/05/22 07:12:54;;;;;;;0.10;0.10;;;18.20;84.50;;;;;;6146976;23;20013;-82
2021/05/22 07:15:21;;;;;;;0.10;0.10;;;18.10;85.10;;;;;;6149188;23;20036;-78
2021/05/22 07:17:47;;;;;;;0.10;0.10;;;18.00;84.00;;;;;;6149817;23;20015;-82
2021/05/22 07:20:14;;;;;;;0.10;0.10;;;18.10;83.00;;;;;;6147953;23;20589;-79
2021/05/22 07:22:39;;;;;;;0.00;0.00;;;18.20;83.20;;;;;;6149708;23;20046;-77
2021/05/22 07:25:05;;;;;;;0.10;0.10;;;18.40;83.40;;;;;;6151109;23;20052;-80
2021/05/22 07:27:34;;;;;;;0.10;0.10;;;18.50;83.60;;;;;;6151105;23;20318;-81
2021/05/22 07:30:01;;;;;;;0.10;0.10;;;18.40;82.90;;;;;;6151552;23;19998;-79
2021/05/22 07:32:27;;;;;;;0.10;0.10;;;18.40;83.70;;;;;;6149667;23;20664;-80
2021/05/22 07:34:52;;;;;;;0.10;0.10;;;18.40;83.80;;;;;;6149786;23;20005;-79
2021/05/22 07:37:18;;;;;;;0.32;0.32;;;18.30;82.70;;;;;;6151410;23;20088;-79
2021/05/22 07:39:44;;;;;;;0.00;0.00;;;18.30;82.30;;;;;;6151456;23;20010;-79
2021/05/22 07:42:09;;;;;;;0.10;0.10;;;18.30;81.90;;;;;;6150697;23;20537;-82
2021/05/22 07:44:35;;;;;;;0.10;0.10;;;18.30;82.50;;;;;;6150971;23;20037;-84
2021/05/22 07:47:01;;;;;;;0.10;0.10;;;18.30;83.10;;;;;;6150823;23;20002;-79
2021/05/22 07:49:37;;;;;;;0.10;0.10;;;18.40;83.00;;;;;;6150301;23;20433;-79
2021/05/22 07:52:07;;;;;;;0.10;0.10;;;18.40;84.00;;;;;;6150754;23;20006;-80
2021/05/22 07:54:36;;;;;;;0.40;0.40;;;18.50;84.30;;;;;;6150031;23;20471;-80
2021/05/22 07:57:07;;;;;;;0.10;0.10;;;18.40;82.70;;;;;;6148579;23;20441;-82
2021/05/22 07:59:32;;;;;;;0.10;0.10;;;18.50;83.60;;;;;;6146279;23;20040;-80
2021/05/22 08:02:02;;;;;;;0.10;0.10;;;18.60;84.50;;;;;;6147489;23;20006;-79
2021/05/22 08:04:28;;;;;;;0.10;0.10;;;18.60;83.10;;;;;;6148460;23;20006;-80
2021/05/22 08:06:54;;;;;;;0.00;0.00;;;18.60;83.40;;;;;;6146657;23;20006;-81
2021/05/22 08:09:20;;;;;;;0.10;0.10;;;18.80;82.70;;;;;;6145629;23;20002;-80
2021/05/22 08:11:46;;;;;;;0.10;0.10;;;19.00;83.20;;;;;;6146681;23;20022;-81
2021/05/22 08:14:12;;;;;;;0.10;0.10;;;19.20;80.50;;;;;;6147678;23;20010;-81
2021/05/22 08:16:38;;;;;;;0.10;0.10;;;19.30;80.80;;;;;;6150628;23;20456;-88
2021/05/22 08:19:05;;;;;;;0.00;0.00;;;19.40;79.40;;;;;;6148878;23;20001;-80
2021/05/22 08:21:30;;;;;;;0.10;0.10;;;19.40;79.30;;;;;;6149877;23;20016;-80
2021/05/22 08:23:56;;;;;;;0.10;0.10;;;19.30;80.50;;;;;;6150134;23;20340;-81
2021/05/22 08:49:17;;;;;;;0.10;0.10;;;18.70;83.20;;;;;;5151751;27;20674;-77
2021/05/22 08:51:43;;;;;;;0.10;0.10;;;18.80;84.50;;;;;;5125787;27;20039;-79
2021/05/22 08:54:09;;;;;;;0.03;0.03;;;19.00;83.40;;;;;;5119104;28;20122;-78
2021/05/22 08:56:35;;;;;;;1.67;1.55;;;19.40;82.90;;;;;;5088708;28;20144;-78
2021/05/22 08:59:01;;;;;;;0.10;0.10;;;19.70;82.20;;;;;;5113495;28;20685;-78
2021/05/22 09:01:27;;;;;;;0.00;0.00;;;19.80;81.60;;;;;;5090238;28;20400;-80
2021/05/22 09:03:56;;;;;;;0.10;0.10;;;19.80;80.90;;;;;;5112709;28;20028;-79
2021/05/22 09:06:23;;;;;;;0.10;0.10;;;20.00;80.70;;;;;;5097473;27;20088;-80
2021/05/22 09:09:00;;;;;;;0.10;0.10;;;19.90;80.70;;;;;;5097754;28;20123;-79
2021/05/22 09:11:26;;;;;;;0.10;0.10;;;19.90;81.90;;;;;;5099909;28;20039;-78
2021/05/22 09:13:52;;;;;;;0.10;0.10;;;19.80;80.80;;;;;;5116792;28;20039;-79
2021/05/22 09:16:20;;;;;;;0.10;0.10;;;19.90;81.50;;;;;;5105419;28;20032;-79
2021/05/22 09:18:47;;;;;;;0.10;0.10;;;19.90;79.90;;;;;;5098097;28;21052;-79
2021/05/22 09:21:14;;;;;;;0.80;0.80;;;19.90;80.80;;;;;;5098398;28;20031;-79
2021/05/22 09:23:40;;;;;;;;;;;19.90;79.90;;;;;;5104788;28;20341;-78
2021/05/22 09:26:14;;;;;;;0.10;0.10;;;19.90;81.80;;;;;;5105531;28;19911;-80
2021/05/22 09:28:50;;;;;;;0.10;0.10;;;19.90;81.60;;;;;;5101073;28;20031;-79
2021/05/22 09:34:06;;;;;;;0.10;0.10;;;20.00;82.10;;;;;;5074463;28;20083;-79
2021/05/22 09:36:44;;;;;;;0.10;0.10;;;20.00;82.20;;;;;;5081558;28;20035;-79
2021/05/22 09:39:18;;;;;;;1.00;0.75;;;20.00;83.10;;;;;;5077273;28;20040;-78
2021/05/22 09:41:44;;;;;;;0.10;0.10;;;20.00;82.80;;;;;;5083419;28;20028;-79
2021/05/22 09:44:15;;;;;;;0.10;0.10;;;19.90;83.40;;;;;;5088929;28;20484;-79
2021/05/22 09:46:44;;;;;;;0.10;0.10;;;19.90;83.50;;;;;;5085384;28;20123;-79
2021/05/22 09:49:21;;;;;;;0.10;0.10;;;19.90;83.40;;;;;;5079001;28;20035;-79
2021/05/22 09:52:03;;;;;;;0.20;0.20;;;19.90;83.40;;;;;;5061983;28;20412;-79
2021/05/22 09:55:12;;;;;;;0.10;0.10;;;19.90;84.00;;;;;;5076677;28;20031;-81
2021/05/22 09:59:29;;;;;;;0.10;0.10;;;20.00;83.20;;;;;;5058065;28;20464;-80
2021/05/22 10:01:56;;;;;;;0.00;0.00;;;19.80;80.80;;;;;;5045065;28;20475;-78
2021/05/22 10:04:22;;;;;;;0.10;0.10;;;19.70;82.70;;;;;;5044213;28;20021;-81
2021/05/22 10:06:48;;;;;;;0.20;0.20;;;19.40;75.20;;;;;;5025669;28;20030;-84
2021/05/22 10:09:18;;;;;;;0.10;0.10;;;19.20;72.80;;;;;;5041125;28;20087;-79
2021/05/22 10:12:09;;;;;;;0.10;0.10;;;18.90;71.00;;;;;;5050540;28;20376;-82
2021/05/22 10:14:43;;;;;;;0.10;0.10;;;18.70;72.10;;;;;;5042283;28;20067;-78
2021/05/22 10:17:12;;;;;;;0.10;0.10;;;18.70;73.00;;;;;;5049496;28;20014;-77
2021/05/22 10:19:38;;;;;;;0.20;0.20;;;18.60;72.90;;;;;;5043846;28;20103;-78
2021/05/22 10:22:08;;;;;;;0.10;0.10;;;18.60;71.20;;;;;;5044537;28;20029;-77
2021/05/22 10:24:35;;;;;;;0.75;0.57;;;18.60;69.40;;;;;;5044130;28;20063;-77
2021/05/22 10:27:01;;;;;;;0.32;0.17;;;18.60;67.60;;;;;;5044748;28;20291;-79
2021/05/22 10:29:29;;;;;;;0.10;0.10;;;18.60;67.30;;;;;;5045851;28;20415;-77
2021/05/22 10:31:55;;;;;;;0.10;0.10;;;18.60;65.40;;;;;;5042872;28;20065;-78
2021/05/22 10:34:24;;;;;;;0.10;0.10;;;18.70;67.10;;;;;;5031165;28;20435;-78
2021/05/22 10:36:54;;;;;;;0.08;0.08;;;18.80;69.10;;;;;;5024639;28;20040;-77
2021/05/22 10:39:39;;;;;;;0.10;0.10;;;18.90;68.60;;;;;;5040996;28;20040;-78
2021/05/22 10:42:30;;;;;;;0.20;0.20;;;19.10;68.30;;;;;;5024395;28;20113;-77
2021/05/22 10:44:56;;;;;;;0.08;0.08;;;19.30;68.90;;;;;;5032165;28;20128;-77
2021/05/22 10:47:27;;;;;;;0.10;0.10;;;19.60;66.10;;;;;;5040662;28;20029;-78
2021/05/22 10:49:58;;;;;;;0.10;0.10;;;19.70;68.30;;;;;;5034291;28;20029;-79
2021/05/22 10:52:32;;;;;;;0.10;0.10;;;19.70;67.70;;;;;;5050668;28;20025;-79
2021/05/22 10:55:08;;;;;;;0.47;0.32;;;19.80;68.90;;;;;;5041521;28;20040;-81
2021/05/22 10:58:03;;;;;;;0.10;0.10;;;19.70;68.50;;;;;;5044281;28;20049;-84
2021/05/22 11:00:29;;;;;;;0.10;0.10;;;19.70;68.50;;;;;;5029636;28;20033;-84
2021/05/22 11:03:07;;;;;;;0.10;0.10;;;19.70;68.60;;;;;;5043927;28;20085;-85
2021/05/22 11:05:39;;;;;;;0.10;0.10;;;19.60;68.90;;;;;;5035944;28;20021;-80
2021/05/22 11:08:05;;;;;;;0.10;0.10;;;19.60;70.30;;;;;;5043719;28;20111;-80
2021/05/22 11:10:40;;;;;;;0.10;0.10;;;19.50;68.90;;;;;;5028825;28;20065;-80
2021/05/22 11:13:26;;;;;;;0.10;0.10;;;19.50;69.30;;;;;;5021957;28;20030;-78
2021/05/22 11:15:56;;;;;;;0.10;0.10;;;19.30;70.40;;;;;;5005629;28;20096;-79
2021/05/22 11:18:45;;;;;;;0.10;0.10;;;19.20;68.80;;;;;;5015790;28;20036;-79
2021/05/22 11:21:10;;;;;;;;;;;19.10;70.00;;;;;;5022809;28;20034;-78
2021/05/22 11:23:58;;;;;;;0.10;0.10;;;19.10;68.60;;;;;;5018124;28;19913;-79
2021/05/22 11:26:57;;;;;;;0.20;0.20;;;19.10;68.80;;;;;;5017540;28;20476;-79
2021/05/22 11:29:23;;;;;;;;;;;19.10;69.00;;;;;;5022081;28;20121;-78
2021/05/22 11:31:49;;;;;;;0.68;0.38;;;19.10;67.30;;;;;;5019451;28;19909;-77
2021/05/22 11:34:24;;;;;;;0.20;0.20;;;19.10;66.80;;;;;;5015394;28;20148;-78
2021/05/22 11:37:12;;;;;;;0.00;0.00;;;19.10;66.40;;;;;;5018991;28;20018;-79
2021/05/22 11:39:41;;;;;;;0.07;0.07;;;19.20;70.00;;;;;;5018353;28;20070;-78
2021/05/22 11:42:30;;;;;;;0.10;0.10;;;19.30;69.10;;;;;;5017492;28;20022;-80
2021/05/22 11:44:58;;;;;;;0.10;0.10;;;19.40;65.50;;;;;;5017845;28;20117;-79
2021/05/22 11:47:30;;;;;;;0.10;0.10;;;19.50;62.50;;;;;;5019861;28;20021;-79
2021/05/22 11:49:57;;;;;;;0.88;0.45;;;19.60;64.30;;;;;;5018601;28;20471;-80
2021/05/22 11:52:37;;;;;;;0.10;0.10;;;19.70;63.90;;;;;;5019724;28;20034;-80
2021/05/22 11:55:21;;;;;;;0.10;0.10;;;19.70;61.00;;;;;;5016974;28;20025;-78
2021/05/22 11:58:03;;;;;;;0.10;0.10;;;19.70;62.40;;;;;;5019576;28;20430;-78
2021/05/22 12:00:29;;;;;;;0.10;0.10;;;19.70;65.20;;;;;;5023316;28;20112;-79
2021/05/22 12:02:55;;;;;;;0.10;0.10;;;19.80;61.40;;;;;;5019896;28;20559;-77
2021/05/22 12:05:20;;;;;;;0.10;0.10;;;19.80;64.30;;;;;;5015393;28;20018;-77
2021/05/22 12:07:51;;;;;;;0.10;0.10;;;20.00;66.20;;;;;;5018769;28;20079;-78
2021/05/22 12:10:19;;;;;;;0.10;0.10;;;20.00;63.10;;;;;;5017940;28;20033;-79
2021/05/22 12:12:45;;;;;;;0.10;0.10;;;19.80;62.70;;;;;;5017710;28;20025;-79
2021/05/22 12:15:25;;;;;;;0.10;0.10;;;19.70;65.00;;;;;;5014912;28;20021;-80
2021/05/22 12:17:54;;;;;;;0.50;0.50;;;19.70;62.90;;;;;;5019612;28;20047;-79
2021/05/22 12:20:21;;;;;;;0.10;0.10;;;19.60;61.10;;;;;;5013555;28;20578;-80
2021/05/22 12:25:31;;;;;;;0.10;0.10;;;19.60;62.10;;;;;;5017154;28;20049;-79
2021/05/22 12:27:56;;;;;;;0.10;0.10;;;19.60;61.90;;;;;;5018409;28;20018;-79
2021/05/22 12:30:22;;;;;;;0.10;0.10;;;19.70;63.50;;;;;;5029483;28;20075;-79
2021/05/22 12:33:09;;;;;;;0.10;0.10;;;19.70;62.00;;;;;;5028681;28;20458;-78
2021/05/22 12:35:34;;;;;;;0.10;0.10;;;19.70;67.70;;;;;;5029221;28;20022;-79
2021/05/22 12:38:00;;;;;;;0.10;0.10;;;19.70;66.80;;;;;;5028153;28;20036;-78
2021/05/22 12:40:27;;;;;;;0.10;0.10;;;19.80;66.60;;;;;;5029120;28;20522;-79
2021/05/22 12:42:53;;;;;;;4.07;3.63;;;19.70;65.90;;;;;;5026668;28;20025;-78
2021/05/22 12:45:19;;;;;;;0.10;0.10;;;19.70;67.30;;;;;;5029115;28;20406;-78
2021/05/22 12:47:50;;;;;;;0.10;0.10;;;19.80;66.70;;;;;;5028746;28;20017;-79
2021/05/22 12:50:26;;;;;;;1.92;1.75;;;19.90;67.60;;;;;;5025357;28;20132;-79
2021/05/22 12:52:59;;;;;;;0.10;0.10;;;20.00;67.10;;;;;;5039666;28;20448;-80
2021/05/22 12:55:32;;;;;;;1.40;1.30;;;20.20;67.90;;;;;;5027817;28;20751;-79
2021/05/22 12:58:07;;;;;;;0.10;0.10;;;20.20;65.70;;;;;;5028063;28;20053;-81
2021/05/22 13:00:33;;;;;;;0.00;0.00;;;20.20;66.70;;;;;;5029439;28;20014;-84
2021/05/22 13:03:01;;;;;;;0.10;0.10;;;20.10;66.70;;;;;;5028524;28;20021;-82
2021/05/22 13:05:28;;;;;;;0.10;0.10;;;20.20;65.90;;;;;;5029152;28;20079;-83
2021/05/22 13:08:02;;;;;;;0.15;0.15;;;20.10;66.70;;;;;;5027858;28;20620;-83
2021/05/22 13:10:36;;;;;;;0.10;0.10;;;20.10;66.70;;;;;;5026660;28;20025;-83
2021/05/22 13:13:10;;;;;;;0.10;0.10;;;20.10;66.70;;;;;;5021960;28;20084;-86
2021/05/22 13:15:37;;;;;;;0.95;0.38;;;20.00;68.90;;;;;;5027164;28;20179;-82
2021/05/22 13:18:10;;;;;;;0.10;0.10;;;20.00;67.70;;;;;;5022674;28;20033;-83
2021/05/22 13:20:41;;;;;;;0.10;0.10;;;19.90;64.60;;;;;;5025575;28;20303;-84
2021/05/22 13:23:17;;;;;;;0.10;0.10;;;19.70;64.60;;;;;;5016195;28;20433;-84
2021/05/22 13:25:44;;;;;;;0.10;0.10;;;19.70;65.50;;;;;;5018788;28;20429;-83
2021/05/22 13:28:18;;;;;;;0.10;0.10;;;19.60;65.60;;;;;;5025952;28;20025;-85